createdAt,value
2019-03-28T00:07:11.233Z,23.2
2019-03-28T00:17:10.444Z,22.9
2019-03-28T00:27:09.654Z,22.9
2019-03-28T00:37:09.106Z,22.9
2019-03-28T00:47:08.072Z,23.1
2019-03-28T00:57:07.283Z,23
2019-03-28T01:07:06.493Z,22.9
2019-03-28T01:17:05.703Z,23.1
2019-03-28T01:27:04.913Z,22.8
2019-03-28T01:37:04.215Z,22.6
2019-03-28T01:47:03.333Z,23.9
2019-03-28T01:57:10.618Z,24.6
2019-03-28T02:07:01.753Z,24.1
2019-03-28T02:17:00.961Z,23.3
2019-03-28T02:27:00.173Z,22.9
2019-03-28T02:36:59.382Z,22.8
2019-03-28T02:46:58.591Z,22.9
2019-03-28T02:56:57.802Z,22.9
2019-03-28T03:06:57.009Z,22.9
2019-03-28T03:16:56.218Z,22.6
2019-03-28T03:26:55.426Z,23.4
2019-03-28T03:36:54.636Z,23.5
2019-03-28T03:46:54.071Z,22.9
2019-03-28T03:56:53.056Z,22.7
2019-03-28T04:08:40.620Z,23.4
2019-03-28T04:18:40.168Z,23.1
2019-03-28T04:28:39.040Z,22.6
2019-03-28T04:38:38.249Z,23.1
2019-03-28T04:48:37.459Z,23
2019-03-28T04:58:44.129Z,22.6
2019-03-28T05:08:35.891Z,22.6
2019-03-28T05:18:35.177Z,23.4
2019-03-28T05:28:34.468Z,23.4
2019-03-28T05:38:33.758Z,22.9
2019-03-28T05:48:33.049Z,22.5
2019-03-28T05:58:32.336Z,23.1
2019-03-28T06:08:31.586Z,23
2019-03-28T06:18:30.796Z,22.9
2019-03-28T06:28:30.005Z,22.2
2019-03-28T06:38:29.215Z,22.9
2019-03-28T06:48:28.426Z,23.4
2019-03-28T06:58:27.633Z,23.3
2019-03-28T07:08:26.842Z,22.8
2019-03-28T07:18:26.051Z,22.7
2019-03-28T07:28:25.261Z,23.3
2019-03-28T07:38:24.468Z,23.6
2019-03-28T07:48:23.676Z,23.7
2019-03-28T07:58:22.888Z,23.8
2019-03-28T08:08:22.095Z,23.9
2019-03-28T08:18:23.745Z,24.1
2019-03-28T08:28:20.514Z,24.2
2019-03-28T08:38:19.723Z,24.1
2019-03-28T08:48:18.934Z,24.5
2019-03-28T08:58:18.143Z,24.8
2019-03-28T09:08:17.358Z,24.6
2019-03-28T09:28:15.776Z,24.2
2019-03-28T09:38:14.983Z,24.1
2019-03-28T09:48:14.191Z,23.9
2019-03-28T09:58:13.401Z,23.8
2019-03-28T10:08:12.611Z,24.2
2019-03-28T10:18:11.821Z,24.1
2019-03-28T10:28:11.029Z,24
2019-03-28T10:38:10.242Z,23.9
2019-03-28T10:48:09.446Z,23.8
2019-03-28T10:58:18.052Z,23.9
2019-03-28T11:08:07.862Z,23.6
2019-03-28T11:18:07.073Z,23.4
2019-03-28T11:28:06.281Z,23.1
2019-03-28T11:38:05.494Z,23.1
2019-03-28T11:48:04.698Z,23.3
2019-03-28T11:58:03.907Z,23.5
2019-03-28T12:08:03.115Z,23.3
2019-03-28T12:18:02.323Z,23.1
2019-03-28T12:28:01.535Z,23
2019-03-28T12:38:00.742Z,23.1
2019-03-28T12:47:59.951Z,23.1
2019-03-28T12:57:59.157Z,23.1
2019-03-28T13:07:58.367Z,23.3
2019-03-28T13:17:57.575Z,22.9
2019-03-28T13:27:56.786Z,23.1
2019-03-28T13:37:55.991Z,23.2
2019-03-28T13:47:55.200Z,22.9
2019-03-28T13:57:54.407Z,23.3
2019-03-28T14:07:53.616Z,23.2
2019-03-28T14:17:52.822Z,22.9
2019-03-28T14:27:52.030Z,23.2
2019-03-28T14:37:51.241Z,23.3
2019-03-28T14:47:50.447Z,22.9
2019-03-28T14:57:49.656Z,23.1
2019-03-28T15:07:48.865Z,23.1
2019-03-28T15:17:48.531Z,22.6
2019-03-28T15:27:47.737Z,23.9
2019-03-28T15:37:47.437Z,24.2
2019-03-28T15:47:46.151Z,24
2019-03-28T15:57:45.362Z,23.6
2019-03-28T16:07:44.570Z,23.1
2019-03-28T16:17:43.779Z,23.1
2019-03-28T16:27:42.987Z,23.1
2019-03-28T16:37:42.336Z,22.7
2019-03-28T16:47:41.546Z,22.8
2019-03-28T16:57:40.759Z,23.1
2019-03-28T17:07:39.966Z,23
2019-03-28T17:17:39.177Z,22.9
2019-03-28T17:27:38.389Z,23.1
2019-03-28T17:37:37.633Z,23.1
2019-03-28T17:47:37.185Z,23
2019-03-28T17:51:58.407Z,23.1
2019-03-28T18:01:57.603Z,23.3
2019-03-28T18:11:56.818Z,23.3
2019-03-28T18:22:03.078Z,23.1
2019-03-28T18:31:55.236Z,23.1
2019-03-28T18:41:56.514Z,23.1
2019-03-28T18:51:53.660Z,23.2
2019-03-28T19:01:52.952Z,23.1
2019-03-28T19:11:52.244Z,22.9
2019-03-28T19:21:51.545Z,22.9
2019-03-28T19:31:50.837Z,23.2
2019-03-28T19:41:50.649Z,23.3
2019-03-28T19:51:49.395Z,23
2019-03-28T20:01:48.599Z,23
2019-03-28T20:11:47.821Z,23.3
2019-03-28T20:21:47.033Z,23.4
2019-03-28T20:31:46.243Z,23.2
2019-03-28T20:41:45.452Z,23
2019-03-28T20:51:44.667Z,23
2019-03-28T21:01:43.883Z,23.2
2019-03-28T21:11:43.094Z,23.2
2019-03-28T21:21:44.501Z,22.9
2019-03-28T21:31:49.491Z,22.9
2019-03-28T21:41:41.916Z,24.1
2019-03-28T21:51:41.127Z,24.2
2019-03-28T22:01:40.338Z,24
2019-03-28T22:11:39.553Z,23.4
2019-03-28T22:21:38.764Z,22.9
2019-03-28T22:31:37.973Z,22.5
2019-03-28T22:41:37.186Z,23.1
2019-03-28T22:51:36.398Z,23.1
2019-03-28T23:01:36.199Z,23.2
2019-03-28T23:11:34.818Z,23.1
2019-03-28T23:21:34.031Z,23
2019-03-28T23:31:33.238Z,22.9
2019-03-28T23:41:32.448Z,22.8
2019-03-28T23:51:31.662Z,22.7
